Aérodrome :
LOGIN :

S'inscrire | Disclaimer

   EN    FR    IT 

 










Légende :    VFR   VFR Marginal   IFR   IFR Intensif   IFR Très Intensif
Visi : 
Plafond : 
>= 8 km
>= 3000ft
5 à 8 km
1000 à 3000 ft
1500m à 5 km
500 à 1000 ft
800 à 1500m
200 à 500 ft
< 800m
< 200 ft
Symboles :   Orages  Brouillard  Fortes neiges  Fortes précipitations  Vent > 20 kt
SIGMETs :   Divers  Orages  Givrage  Turbulence  Onde Orograph.  Cendres Volcan.






- Altitude de l'aérodrome : 2588 ft
- Code IATA : AOE


LTBY - Anadolu University

DERNIER METAR :
  • 241250Z 27007KT 9999 SCT035 02/M06 Q1029

METARs EXPIRÉS :
  • 241150Z 29007KT 240V330 9999 SCT035 02/M05 Q1030
  • 241050Z 25006KT 190V290 9999 SCT030 02/M04 Q1031
  • 240950Z 28006KT 240V320 9999 SCT040 01/M04 Q1031

TAF TAF LTBY
Valide du 24 à 12h jusqu'au 24 à 21h UTC


241040Z 2412/2421 30008KT 9999 SCT030



MET'MAP, la Météo Aéronautique d'un coup d'oeil ! - Copyright ORBIFLY Décembre 2007 - Disclaimer

ORBIFLY MET'MAP TEAM :

Programmation & Développement : Alexandra Zaïnal
Sur une idée originale de : Baudouin d'Aumeries
Assistance à la programmation : Marc-Olivier Méhu
Soutien technique & logistique : Manuel Goepfert

Contact : metmap@orbifly.com




SOURCES & CREDITS :

   NOAA